Time,TemperatureF,DewpointF,PressureIn,WindDirection,WindDirectionDegrees,WindSpeedMPH,WindSpeedGustMPH,Humidity,HourlyPrecipIn,Conditions,Clouds,dailyrainin,SoftwareType,DateUTC
2013-01-17 00:01:00,34.1,33.6,29.56,North,-999,-999.0,-999.0,97,-99.99,,,-99.99,Homeseer,2013-01-17 05:01:00,
2013-01-17 00:02:00,34.0,33.5,29.55,North,-999,-999.0,-999.0,97,-99.99,,,-99.99,Homeseer,2013-01-17 05:02:00,
2013-01-17 00:03:00,34.0,33.5,29.55,North,-999,-999.0,-999.0,97,-99.99,,,-99.99,Homeseer,2013-01-17 05:03:00,
2013-01-17 00:05:00,34.0,33.5,29.56,North,-999,-999.0,-999.0,97,-99.99,,,-99.99,Homeseer,2013-01-17 05:05:00,
2013-01-17 00:10:00,33.9,33.4,29.55,North,-999,-999.0,-999.0,97,-99.99,,,-99.99,Homeseer,2013-01-17 05:10:00,
2013-01-17 00:15:00,33.8,33.3,29.56,North,-999,-999.0,-999.0,97,-99.99,,,-99.99,Homeseer,2013-01-17 05:15:00,
2013-01-17 00:20:00,33.9,33.4,29.57,North,-999,-999.0,-999.0,97,-99.99,,,-99.99,Homeseer,2013-01-17 05:20:00,
2013-01-17 00:25:00,33.8,33.3,29.57,North,-999,-999.0,-999.0,97,-99.99,,,-99.99,Homeseer,2013-01-17 05:25:00,
2013-01-17 00:30:00,33.6,33.1,29.57,North,-999,-999.0,-999.0,97,-99.99,,,-99.99,Homeseer,2013-01-17 05:30:00,
2013-01-17 00:35:00,33.6,32.9,29.57,North,-999,-999.0,-999.0,96,-99.99,,,-99.99,Homeseer,2013-01-17 05:35:00,
2013-01-17 00:40:00,33.6,33.1,29.57,North,-999,-999.0,-999.0,97,-99.99,,,-99.99,Homeseer,2013-01-17 05:40:00,
2013-01-17 00:45:00,33.6,33.1,29.58,North,-999,-999.0,-999.0,97,-99.99,,,-99.99,Homeseer,2013-01-17 05:45:00,
2013-01-17 00:50:00,33.6,33.2,29.58,North,-999,-999.0,-999.0,98,-99.99,,,-99.99,Homeseer,2013-01-17 05:50:00,
2013-01-17 00:55:00,33.5,33.1,29.58,North,-999,-999.0,-999.0,98,-99.99,,,-99.99,Homeseer,2013-01-17 05:55:00,
2013-01-17 01:00:00,33.6,33.2,29.58,North,-999,-999.0,-999.0,98,-99.99,,,-99.99,Homeseer,2013-01-17 06:00:00,
2013-01-17 01:05:00,33.6,33.2,29.58,North,-999,-999.0,-999.0,98,-99.99,,,-99.99,Homeseer,2013-01-17 06:05:00,
2013-01-17 01:10:00,33.6,33.1,29.58,North,-999,-999.0,-999.0,97,-99.99,,,-99.99,Homeseer,2013-01-17 06:10:00,
2013-01-17 01:16:00,33.5,33.0,29.59,North,-999,-999.0,-999.0,97,-99.99,,,-99.99,Homeseer,2013-01-17 06:16:00,
2013-01-17 01:21:00,33.2,32.7,29.59,North,-999,-999.0,-999.0,97,-99.99,,,-99.99,Homeseer,2013-01-17 06:21:00,
2013-01-17 01:26:00,33.2,32.7,29.58,North,-999,-999.0,-999.0,97,-99.99,,,-99.99,Homeseer,2013-01-17 06:26:00,
2013-01-17 01:31:00,33.1,32.6,29.59,North,-999,-999.0,-999.0,97,-99.99,,,-99.99,Homeseer,2013-01-17 06:31:00,
2013-01-17 01:36:00,33.0,32.6,29.59,North,-999,-999.0,-999.0,98,-99.99,,,-99.99,Homeseer,2013-01-17 06:36:00,
2013-01-17 01:41:00,33.1,32.6,29.59,North,-999,-999.0,-999.0,97,-99.99,,,-99.99,Homeseer,2013-01-17 06:41:00,
2013-01-17 01:46:00,32.9,32.4,29.58,North,-999,-999.0,-999.0,97,-99.99,,,-99.99,Homeseer,2013-01-17 06:46:00,
2013-01-17 01:51:00,32.9,32.4,29.59,North,-999,-999.0,-999.0,97,-99.99,,,-99.99,Homeseer,2013-01-17 06:51:00,
2013-01-17 01:56:00,32.7,32.3,29.59,North,-999,-999.0,-999.0,98,-99.99,,,-99.99,Homeseer,2013-01-17 06:56:00,
2013-01-17 02:01:00,32.8,32.4,29.59,North,-999,-999.0,-999.0,98,-99.99,,,-99.99,Homeseer,2013-01-17 07:01:00,
2013-01-17 02:06:00,32.8,32.4,29.58,North,-999,-999.0,-999.0,98,-99.99,,,-99.99,Homeseer,2013-01-17 07:06:00,
2013-01-17 02:11:00,32.8,32.3,29.59,North,-999,-999.0,-999.0,97,-99.99,,,-99.99,Homeseer,2013-01-17 07:11:00,
2013-01-17 02:16:00,32.4,31.9,29.59,North,-999,-999.0,-999.0,97,-99.99,,,-99.99,Homeseer,2013-01-17 07:16:00,
2013-01-17 02:21:00,32.4,31.9,29.59,North,-999,-999.0,-999.0,97,-99.99,,,-99.99,Homeseer,2013-01-17 07:21:00,
2013-01-17 02:26:00,32.4,31.9,29.60,North,-999,-999.0,-999.0,97,-99.99,,,-99.99,Homeseer,2013-01-17 07:26:00,
2013-01-17 02:31:00,32.3,31.8,29.59,North,-999,-999.0,-999.0,97,-99.99,,,-99.99,Homeseer,2013-01-17 07:31:00,
2013-01-17 02:36:00,32.2,31.7,29.60,North,-999,-999.0,-999.0,97,-99.99,,,-99.99,Homeseer,2013-01-17 07:36:00,
2013-01-17 02:41:00,32.2,31.7,29.59,North,-999,-999.0,-999.0,97,-99.99,,,-99.99,Homeseer,2013-01-17 07:41:00,
2013-01-17 02:46:00,32.3,31.8,29.59,North,-999,-999.0,-999.0,97,-99.99,,,-99.99,Homeseer,2013-01-17 07:46:00,
2013-01-17 02:51:00,32.2,31.7,29.60,North,-999,-999.0,-999.0,97,-99.99,,,-99.99,Homeseer,2013-01-17 07:51:00,
2013-01-17 02:56:00,32.2,31.7,29.59,North,-999,-999.0,-999.0,97,-99.99,,,-99.99,Homeseer,2013-01-17 07:56:00,
2013-01-17 03:01:00,32.2,31.7,29.59,North,-999,-999.0,-999.0,97,-99.99,,,-99.99,Homeseer,2013-01-17 08:01:00,
2013-01-17 03:06:00,32.1,31.6,29.59,North,-999,-999.0,-999.0,97,-99.99,,,-99.99,Homeseer,2013-01-17 08:06:00,
2013-01-17 03:11:00,32.1,31.7,29.57,North,-999,-999.0,-999.0,98,-99.99,,,-99.99,Homeseer,2013-01-17 08:11:00,
2013-01-17 03:16:00,32.1,31.6,29.58,North,-999,-999.0,-999.0,97,-99.99,,,-99.99,Homeseer,2013-01-17 08:16:00,
2013-01-17 03:21:00,32.1,31.6,29.57,North,-999,-999.0,-999.0,97,-99.99,,,-99.99,Homeseer,2013-01-17 08:21:00,
2013-01-17 03:26:00,32.0,31.3,29.58,North,-999,-999.0,-999.0,96,-99.99,,,-99.99,Homeseer,2013-01-17 08:26:00,
2013-01-17 03:31:00,31.6,30.9,29.58,North,-999,-999.0,-999.0,96,-99.99,,,-99.99,Homeseer,2013-01-17 08:31:00,
2013-01-17 03:36:00,31.4,30.7,29.57,North,-999,-999.0,-999.0,96,-99.99,,,-99.99,Homeseer,2013-01-17 08:36:00,
2013-01-17 03:41:00,31.0,30.3,29.58,North,-999,-999.0,-999.0,96,-99.99,,,-99.99,Homeseer,2013-01-17 08:41:00,
2013-01-17 03:46:00,31.0,30.5,29.58,North,-999,-999.0,-999.0,97,-99.99,,,-99.99,Homeseer,2013-01-17 08:46:00,
2013-01-17 03:51:00,31.0,30.5,29.57,North,-999,-999.0,-999.0,97,-99.99,,,-99.99,Homeseer,2013-01-17 08:51:00,
2013-01-17 03:56:00,31.1,30.6,29.58,North,-999,-999.0,-999.0,97,-99.99,,,-99.99,Homeseer,2013-01-17 08:56:00,
2013-01-17 04:01:00,31.0,30.5,29.59,North,-999,-999.0,-999.0,97,-99.99,,,-99.99,Homeseer,2013-01-17 09:01:00,
2013-01-17 04:06:00,31.1,30.6,29.59,North,-999,-999.0,-999.0,97,-99.99,,,-99.99,Homeseer,2013-01-17 09:06:00,
2013-01-17 04:11:00,31.1,30.6,29.58,North,-999,-999.0,-999.0,97,-99.99,,,-99.99,Homeseer,2013-01-17 09:11:00,
2013-01-17 04:16:00,31.1,30.6,29.57,North,-999,-999.0,-999.0,97,-99.99,,,-99.99,Homeseer,2013-01-17 09:16:00,
2013-01-17 04:21:00,31.0,30.5,29.57,North,-999,-999.0,-999.0,97,-99.99,,,-99.99,Homeseer,2013-01-17 09:21:00,
2013-01-17 04:26:00,31.0,30.5,29.57,North,-999,-999.0,-999.0,97,-99.99,,,-99.99,Homeseer,2013-01-17 09:26:00,
2013-01-17 04:31:00,30.9,30.2,29.57,North,-999,-999.0,-999.0,96,-99.99,,,-99.99,Homeseer,2013-01-17 09:31:00,
2013-01-17 04:36:00,30.6,29.9,29.56,North,-999,-999.0,-999.0,96,-99.99,,,-99.99,Homeseer,2013-01-17 09:36:00,
2013-01-17 04:41:00,30.4,29.7,29.55,North,-999,-999.0,-999.0,96,-99.99,,,-99.99,Homeseer,2013-01-17 09:41:00,
2013-01-17 04:46:00,30.3,29.8,29.56,North,-999,-999.0,-999.0,97,-99.99,,,-99.99,Homeseer,2013-01-17 09:46:00,
2013-01-17 04:51:00,30.3,29.8,29.57,North,-999,-999.0,-999.0,97,-99.99,,,-99.99,Homeseer,2013-01-17 09:51:00,
2013-01-17 04:56:00,30.2,29.7,29.57,North,-999,-999.0,-999.0,97,-99.99,,,-99.99,Homeseer,2013-01-17 09:56:00,
2013-01-17 05:01:00,30.1,29.4,29.57,North,-999,-999.0,-999.0,96,-99.99,,,-99.99,Homeseer,2013-01-17 10:01:00,
2013-01-17 05:06:00,30.0,29.3,29.58,North,-999,-999.0,-999.0,96,-99.99,,,-99.99,Homeseer,2013-01-17 10:06:00,
2013-01-17 05:11:00,30.0,29.5,29.59,North,-999,-999.0,-999.0,97,-99.99,,,-99.99,Homeseer,2013-01-17 10:11:00,
2013-01-17 05:16:00,29.9,29.2,29.59,North,-999,-999.0,-999.0,96,-99.99,,,-99.99,Homeseer,2013-01-17 10:16:00,
2013-01-17 05:21:00,29.9,29.2,29.59,North,-999,-999.0,-999.0,96,-99.99,,,-99.99,Homeseer,2013-01-17 10:21:00,
2013-01-17 05:26:00,29.8,29.1,29.59,North,-999,-999.0,-999.0,96,-99.99,,,-99.99,Homeseer,2013-01-17 10:26:00,
2013-01-17 05:31:00,29.8,29.1,29.59,North,-999,-999.0,-999.0,96,-99.99,,,-99.99,Homeseer,2013-01-17 10:31:00,
2013-01-17 05:36:00,29.5,28.8,29.59,North,-999,-999.0,-999.0,96,-99.99,,,-99.99,Homeseer,2013-01-17 10:36:00,
2013-01-17 05:41:00,29.4,28.7,29.60,North,-999,-999.0,-999.0,96,-99.99,,,-99.99,Homeseer,2013-01-17 10:41:00,
2013-01-17 05:46:00,29.4,28.7,29.60,North,-999,-999.0,-999.0,96,-99.99,,,-99.99,Homeseer,2013-01-17 10:46:00,
2013-01-17 05:51:00,29.3,28.6,29.61,North,-999,-999.0,-999.0,96,-99.99,,,-99.99,Homeseer,2013-01-17 10:51:00,
2013-01-17 05:57:00,29.2,28.5,29.61,North,-999,-999.0,-999.0,96,-99.99,,,-99.99,Homeseer,2013-01-17 10:57:00,
2013-01-17 06:02:00,29.2,28.5,29.61,North,-999,-999.0,-999.0,96,-99.99,,,-99.99,Homeseer,2013-01-17 11:02:00,
2013-01-17 06:07:00,29.0,28.3,29.61,North,-999,-999.0,-999.0,96,-99.99,,,-99.99,Homeseer,2013-01-17 11:07:00,
2013-01-17 06:13:00,28.8,28.3,29.61,North,-999,-999.0,-999.0,97,-99.99,,,-99.99,Homeseer,2013-01-17 11:13:00,
2013-01-17 06:18:00,28.8,28.3,29.61,North,-999,-999.0,-999.0,97,-99.99,,,-99.99,Homeseer,2013-01-17 11:18:00,
2013-01-17 06:23:00,28.8,27.9,29.62,North,-999,-999.0,-999.0,95,-99.99,,,-99.99,Homeseer,2013-01-17 11:23:00,
2013-01-17 06:29:00,28.8,28.3,29.62,North,-999,-999.0,-999.0,97,-99.99,,,-99.99,Homeseer,2013-01-17 11:29:00,
2013-01-17 06:34:00,29.0,28.3,29.63,North,-999,-999.0,-999.0,96,-99.99,,,-99.99,Homeseer,2013-01-17 11:34:00,
2013-01-17 06:39:00,28.8,28.3,29.63,North,-999,-999.0,-999.0,97,-99.99,,,-99.99,Homeseer,2013-01-17 11:39:00,
2013-01-17 06:44:00,29.0,28.3,29.63,North,-999,-999.0,-999.0,96,-99.99,,,-99.99,Homeseer,2013-01-17 11:44:00,
2013-01-17 06:49:00,29.0,28.3,29.63,North,-999,-999.0,-999.0,96,-99.99,,,-99.99,Homeseer,2013-01-17 11:49:00,
2013-01-17 06:54:00,28.8,28.1,29.65,North,-999,-999.0,-999.0,96,-99.99,,,-99.99,Homeseer,2013-01-17 11:54:00,
2013-01-17 06:59:00,28.8,28.1,29.64,North,-999,-999.0,-999.0,96,-99.99,,,-99.99,Homeseer,2013-01-17 11:59:00,
2013-01-17 07:05:00,28.8,28.1,29.65,North,-999,-999.0,-999.0,96,-99.99,,,-99.99,Homeseer,2013-01-17 12:05:00,
2013-01-17 07:10:00,28.6,28.1,29.65,North,-999,-999.0,-999.0,97,-99.99,,,-99.99,Homeseer,2013-01-17 12:10:00,
2013-01-17 07:15:00,28.7,27.8,29.67,North,-999,-999.0,-999.0,95,-99.99,,,-99.99,Homeseer,2013-01-17 12:15:00,
2013-01-17 07:20:00,28.8,28.3,29.67,North,-999,-999.0,-999.0,97,-99.99,,,-99.99,Homeseer,2013-01-17 12:20:00,
2013-01-17 07:25:00,28.8,28.3,29.67,North,-999,-999.0,-999.0,97,-99.99,,,-99.99,Homeseer,2013-01-17 12:25:00,
2013-01-17 07:30:00,29.0,28.5,29.68,North,-999,-999.0,-999.0,97,-99.99,,,-99.99,Homeseer,2013-01-17 12:30:00,
2013-01-17 07:35:00,29.0,28.5,29.68,North,-999,-999.0,-999.0,97,-99.99,,,-99.99,Homeseer,2013-01-17 12:35:00,
2013-01-17 07:40:00,29.1,28.8,29.68,North,-999,-999.0,-999.0,98,-99.99,,,-99.99,Homeseer,2013-01-17 12:40:00,
2013-01-17 07:45:00,29.5,29.1,29.69,North,-999,-999.0,-999.0,98,-99.99,,,-99.99,Homeseer,2013-01-17 12:45:00,
2013-01-17 07:50:00,29.8,29.4,29.70,North,-999,-999.0,-999.0,98,-99.99,,,-99.99,Homeseer,2013-01-17 12:50:00,
2013-01-17 07:55:00,30.2,29.8,29.70,North,-999,-999.0,-999.0,98,-99.99,,,-99.99,Homeseer,2013-01-17 12:55:00,
2013-01-17 08:00:00,30.3,29.9,25.46,North,-999,-999.0,-999.0,98,-99.99,,,-99.99,Homeseer,2013-01-17 13:00:00,
2013-01-17 08:05:00,30.8,30.4,29.69,North,-999,-999.0,-999.0,98,-99.99,,,-99.99,Homeseer,2013-01-17 13:05:00,
2013-01-17 08:10:00,31.0,30.8,29.70,North,-999,-999.0,-999.0,99,-99.99,,,-99.99,Homeseer,2013-01-17 13:10:00,
2013-01-17 08:15:00,31.4,31.0,29.71,North,-999,-999.0,-999.0,98,-99.99,,,-99.99,Homeseer,2013-01-17 13:15:00,
2013-01-17 08:20:00,31.9,31.5,29.71,North,-999,-999.0,-999.0,98,-99.99,,,-99.99,Homeseer,2013-01-17 13:20:00,
2013-01-17 08:25:00,32.1,31.6,29.71,North,-999,-999.0,-999.0,97,-99.99,,,-99.99,Homeseer,2013-01-17 13:25:00,
2013-01-17 08:30:00,32.2,31.5,29.71,North,-999,-999.0,-999.0,96,-99.99,,,-99.99,Homeseer,2013-01-17 13:30:00,
2013-01-17 08:35:00,32.2,31.5,29.72,North,-999,-999.0,-999.0,96,-99.99,,,-99.99,Homeseer,2013-01-17 13:35:00,
2013-01-17 08:40:00,32.2,31.5,29.73,North,-999,-999.0,-999.0,96,-99.99,,,-99.99,Homeseer,2013-01-17 13:40:00,
2013-01-17 08:45:00,32.2,31.5,29.73,North,-999,-999.0,-999.0,96,-99.99,,,-99.99,Homeseer,2013-01-17 13:45:00,
2013-01-17 08:50:00,32.1,31.6,29.72,North,-999,-999.0,-999.0,97,-99.99,,,-99.99,Homeseer,2013-01-17 13:50:00,
2013-01-17 08:55:00,32.4,31.9,29.73,North,-999,-999.0,-999.0,97,-99.99,,,-99.99,Homeseer,2013-01-17 13:55:00,
2013-01-17 09:00:00,32.6,31.9,29.73,North,-999,-999.0,-999.0,96,-99.99,,,-99.99,Homeseer,2013-01-17 14:00:00,
2013-01-17 09:05:00,32.6,31.9,29.73,North,-999,-999.0,-999.0,96,-99.99,,,-99.99,Homeseer,2013-01-17 14:05:00,
2013-01-17 09:10:00,32.8,32.1,29.73,North,-999,-999.0,-999.0,96,-99.99,,,-99.99,Homeseer,2013-01-17 14:10:00,
2013-01-17 09:15:00,33.0,32.5,29.73,North,-999,-999.0,-999.0,97,-99.99,,,-99.99,Homeseer,2013-01-17 14:15:00,
2013-01-17 09:20:00,33.5,33.0,29.74,North,-999,-999.0,-999.0,97,-99.99,,,-99.99,Homeseer,2013-01-17 14:20:00,
2013-01-17 09:25:00,33.9,33.4,29.74,North,-999,-999.0,-999.0,97,-99.99,,,-99.99,Homeseer,2013-01-17 14:25:00,
2013-01-17 09:30:00,34.5,33.8,29.74,North,-999,-999.0,-999.0,96,-99.99,,,-99.99,Homeseer,2013-01-17 14:30:00,
2013-01-17 09:35:00,35.2,34.7,29.73,North,-999,-999.0,-999.0,97,-99.99,,,-99.99,Homeseer,2013-01-17 14:35:00,
2013-01-17 09:40:00,35.7,35.0,29.74,North,-999,-999.0,-999.0,96,-99.99,,,-99.99,Homeseer,2013-01-17 14:40:00,
2013-01-17 09:45:00,35.8,35.1,29.74,North,-999,-999.0,-999.0,96,-99.99,,,-99.99,Homeseer,2013-01-17 14:45:00,
2013-01-17 09:50:00,36.2,35.5,29.74,North,-999,-999.0,-999.0,96,-99.99,,,-99.99,Homeseer,2013-01-17 14:50:00,
2013-01-17 09:55:00,36.5,35.8,29.74,North,-999,-999.0,-999.0,96,-99.99,,,-99.99,Homeseer,2013-01-17 14:55:00,
2013-01-17 10:00:00,37.0,36.1,29.75,North,-999,-999.0,-999.0,95,-99.99,,,-99.99,Homeseer,2013-01-17 15:00:00,
2013-01-17 10:05:00,37.2,36.3,29.73,North,-999,-999.0,-999.0,95,-99.99,,,-99.99,Homeseer,2013-01-17 15:05:00,
2013-01-17 10:10:00,37.3,36.4,29.73,North,-999,-999.0,-999.0,95,-99.99,,,-99.99,Homeseer,2013-01-17 15:10:00,
2013-01-17 10:15:00,38.0,36.9,29.75,North,-999,-999.0,-999.0,94,-99.99,,,-99.99,Homeseer,2013-01-17 15:15:00,
2013-01-17 10:20:00,38.3,37.4,29.74,North,-999,-999.0,-999.0,95,-99.99,,,-99.99,Homeseer,2013-01-17 15:20:00,
2013-01-17 10:25:00,38.4,37.5,29.75,North,-999,-999.0,-999.0,95,-99.99,,,-99.99,Homeseer,2013-01-17 15:25:00,
2013-01-17 10:30:00,38.5,37.4,29.74,North,-999,-999.0,-999.0,94,-99.99,,,-99.99,Homeseer,2013-01-17 15:30:00,
2013-01-17 10:35:00,38.9,38.0,29.75,North,-999,-999.0,-999.0,95,-99.99,,,-99.99,Homeseer,2013-01-17 15:35:00,
2013-01-17 10:40:00,39.1,38.0,29.75,North,-999,-999.0,-999.0,94,-99.99,,,-99.99,Homeseer,2013-01-17 15:40:00,
2013-01-17 10:45:00,39.5,38.2,29.75,North,-999,-999.0,-999.0,93,-99.99,,,-99.99,Homeseer,2013-01-17 15:45:00,
2013-01-17 10:50:00,39.8,38.3,29.75,North,-999,-999.0,-999.0,92,-99.99,,,-99.99,Homeseer,2013-01-17 15:50:00,
2013-01-17 10:55:00,40.0,38.4,29.75,North,-999,-999.0,-999.0,92,-99.99,,,-99.99,Homeseer,2013-01-17 15:55:00,
2013-01-17 11:00:00,40.2,38.4,29.75,North,-999,-999.0,-999.0,91,-99.99,,,-99.99,Homeseer,2013-01-17 16:00:00,
2013-01-17 11:05:00,40.6,38.4,29.75,North,-999,-999.0,-999.0,89,-99.99,,,-99.99,Homeseer,2013-01-17 16:05:00,
2013-01-17 11:10:00,41.0,38.6,29.75,North,-999,-999.0,-999.0,88,-99.99,,,-99.99,Homeseer,2013-01-17 16:10:00,
2013-01-17 11:15:00,41.6,39.2,29.75,North,-999,-999.0,-999.0,88,-99.99,,,-99.99,Homeseer,2013-01-17 16:15:00,
2013-01-17 11:21:00,42.0,39.2,29.76,North,-999,-999.0,-999.0,86,-99.99,,,-99.99,Homeseer,2013-01-17 16:21:00,
2013-01-17 11:26:00,42.0,38.9,29.75,North,-999,-999.0,-999.0,85,-99.99,,,-99.99,Homeseer,2013-01-17 16:26:00,
2013-01-17 11:31:00,42.5,39.4,29.76,North,-999,-999.0,-999.0,85,-99.99,,,-99.99,Homeseer,2013-01-17 16:31:00,
2013-01-17 11:36:00,42.9,39.8,29.76,North,-999,-999.0,-999.0,85,-99.99,,,-99.99,Homeseer,2013-01-17 16:36:00,
2013-01-17 11:41:00,43.5,40.2,29.75,North,-999,-999.0,-999.0,84,-99.99,,,-99.99,Homeseer,2013-01-17 16:41:00,
2013-01-17 11:46:00,43.5,39.7,29.76,North,-999,-999.0,-999.0,82,-99.99,,,-99.99,Homeseer,2013-01-17 16:46:00,
2013-01-17 11:51:00,43.6,40.1,29.75,North,-999,-999.0,-999.0,83,-99.99,,,-99.99,Homeseer,2013-01-17 16:51:00,
2013-01-17 11:56:00,43.7,39.2,29.75,North,-999,-999.0,-999.0,79,-99.99,,,-99.99,Homeseer,2013-01-17 16:56:00,
2013-01-17 12:01:00,43.8,39.6,29.75,North,-999,-999.0,-999.0,80,-99.99,,,-99.99,Homeseer,2013-01-17 17:01:00,
2013-01-17 12:07:00,43.0,38.1,29.75,North,-999,-999.0,-999.0,77,-99.99,,,-99.99,Homeseer,2013-01-17 17:07:00,
2013-01-17 12:13:00,43.5,39.0,29.74,North,-999,-999.0,-999.0,79,-99.99,,,-99.99,Homeseer,2013-01-17 17:13:00,
2013-01-17 12:18:00,43.1,37.9,29.75,North,-999,-999.0,-999.0,76,-99.99,,,-99.99,Homeseer,2013-01-17 17:18:00,
2013-01-17 12:23:00,43.7,38.8,29.75,North,-999,-999.0,-999.0,77,-99.99,,,-99.99,Homeseer,2013-01-17 17:23:00,
2013-01-17 12:29:00,43.6,38.9,29.75,North,-999,-999.0,-999.0,78,-99.99,,,-99.99,Homeseer,2013-01-17 17:29:00,
2013-01-17 12:35:00,44.0,38.6,29.75,North,-999,-999.0,-999.0,75,-99.99,,,-99.99,Homeseer,2013-01-17 17:35:00,
2013-01-17 12:41:00,43.8,38.4,29.75,North,-999,-999.0,-999.0,75,-99.99,,,-99.99,Homeseer,2013-01-17 17:41:00,
2013-01-17 12:46:00,43.6,37.4,29.75,North,-999,-999.0,-999.0,72,-99.99,,,-99.99,Homeseer,2013-01-17 17:46:00,
2013-01-17 12:52:00,43.5,37.3,29.76,North,-999,-999.0,-999.0,72,-99.99,,,-99.99,Homeseer,2013-01-17 17:52:00,
2013-01-17 12:57:00,43.4,37.0,29.75,North,-999,-999.0,-999.0,71,-99.99,,,-99.99,Homeseer,2013-01-17 17:57:00,
2013-01-17 13:02:00,43.2,37.0,29.75,North,-999,-999.0,-999.0,72,-99.99,,,-99.99,Homeseer,2013-01-17 18:02:00,
2013-01-17 13:07:00,43.4,37.0,29.75,North,-999,-999.0,-999.0,71,-99.99,,,-99.99,Homeseer,2013-01-17 18:07:00,
2013-01-17 13:12:00,42.9,35.7,29.74,North,-999,-999.0,-999.0,68,-99.99,,,-99.99,Homeseer,2013-01-17 18:12:00,
2013-01-17 13:17:00,43.0,36.6,29.75,North,-999,-999.0,-999.0,71,-99.99,,,-99.99,Homeseer,2013-01-17 18:17:00,
2013-01-17 13:22:00,43.5,37.1,29.75,North,-999,-999.0,-999.0,71,-99.99,,,-99.99,Homeseer,2013-01-17 18:22:00,
2013-01-17 13:28:00,43.2,36.5,29.77,North,-999,-999.0,-999.0,70,-99.99,,,-99.99,Homeseer,2013-01-17 18:28:00,
2013-01-17 13:33:00,43.4,36.7,29.77,North,-999,-999.0,-999.0,70,-99.99,,,-99.99,Homeseer,2013-01-17 18:33:00,
2013-01-17 13:38:00,43.6,37.4,29.77,North,-999,-999.0,-999.0,72,-99.99,,,-99.99,Homeseer,2013-01-17 18:38:00,
2013-01-17 13:43:00,43.5,36.8,29.77,North,-999,-999.0,-999.0,70,-99.99,,,-99.99,Homeseer,2013-01-17 18:43:00,
2013-01-17 13:48:00,43.4,35.4,29.77,North,-999,-999.0,-999.0,65,-99.99,,,-99.99,Homeseer,2013-01-17 18:48:00,
2013-01-17 13:53:00,43.2,36.3,29.78,North,-999,-999.0,-999.0,69,-99.99,,,-99.99,Homeseer,2013-01-17 18:53:00,
2013-01-17 13:59:00,43.6,35.8,29.78,North,-999,-999.0,-999.0,66,-99.99,,,-99.99,Homeseer,2013-01-17 18:59:00,
2013-01-17 14:04:00,43.4,35.7,29.78,North,-999,-999.0,-999.0,66,-99.99,,,-99.99,Homeseer,2013-01-17 19:04:00,
2013-01-17 14:09:00,43.2,35.5,29.78,North,-999,-999.0,-999.0,66,-99.99,,,-99.99,Homeseer,2013-01-17 19:09:00,
2013-01-17 14:14:00,42.9,35.2,29.78,North,-999,-999.0,-999.0,66,-99.99,,,-99.99,Homeseer,2013-01-17 19:14:00,
2013-01-17 14:20:00,43.1,35.4,29.78,North,-999,-999.0,-999.0,66,-99.99,,,-99.99,Homeseer,2013-01-17 19:20:00,
2013-01-17 14:25:00,43.1,34.5,29.79,North,-999,-999.0,-999.0,63,-99.99,,,-99.99,Homeseer,2013-01-17 19:25:00,
2013-01-17 14:31:00,43.0,35.3,29.79,North,-999,-999.0,-999.0,66,-99.99,,,-99.99,Homeseer,2013-01-17 19:31:00,
2013-01-17 14:36:00,42.8,35.1,29.80,North,-999,-999.0,-999.0,66,-99.99,,,-99.99,Homeseer,2013-01-17 19:36:00,
2013-01-17 14:41:00,42.8,34.2,29.81,North,-999,-999.0,-999.0,63,-99.99,,,-99.99,Homeseer,2013-01-17 19:41:00,
2013-01-17 14:46:00,42.6,34.9,29.81,North,-999,-999.0,-999.0,66,-99.99,,,-99.99,Homeseer,2013-01-17 19:46:00,
2013-01-17 14:51:00,42.8,34.5,29.81,North,-999,-999.0,-999.0,64,-99.99,,,-99.99,Homeseer,2013-01-17 19:51:00,
2013-01-17 14:56:00,42.8,35.6,29.82,North,-999,-999.0,-999.0,68,-99.99,,,-99.99,Homeseer,2013-01-17 19:56:00,
2013-01-17 15:02:00,42.8,35.4,29.83,North,-999,-999.0,-999.0,67,-99.99,,,-99.99,Homeseer,2013-01-17 20:02:00,
2013-01-17 15:08:00,42.7,35.0,29.82,North,-999,-999.0,-999.0,66,-99.99,,,-99.99,Homeseer,2013-01-17 20:08:00,
2013-01-17 15:13:00,42.5,35.3,29.83,North,-999,-999.0,-999.0,68,-99.99,,,-99.99,Homeseer,2013-01-17 20:13:00,
2013-01-17 15:18:00,42.0,33.8,29.83,North,-999,-999.0,-999.0,64,-99.99,,,-99.99,Homeseer,2013-01-17 20:18:00,
2013-01-17 15:23:00,42.4,34.7,29.83,North,-999,-999.0,-999.0,66,-99.99,,,-99.99,Homeseer,2013-01-17 20:23:00,
2013-01-17 15:28:00,42.2,34.8,29.84,North,-999,-999.0,-999.0,67,-99.99,,,-99.99,Homeseer,2013-01-17 20:28:00,
2013-01-17 15:33:00,41.8,35.5,29.84,North,-999,-999.0,-999.0,71,-99.99,,,-99.99,Homeseer,2013-01-17 20:33:00,
2013-01-17 15:39:00,41.4,34.8,29.84,North,-999,-999.0,-999.0,70,-99.99,,,-99.99,Homeseer,2013-01-17 20:39:00,
2013-01-17 15:44:00,41.1,34.8,29.84,North,-999,-999.0,-999.0,71,-99.99,,,-99.99,Homeseer,2013-01-17 20:44:00,
2013-01-17 15:49:00,41.0,34.2,29.85,North,-999,-999.0,-999.0,69,-99.99,,,-99.99,Homeseer,2013-01-17 20:49:00,
2013-01-17 15:54:00,40.7,34.4,29.85,North,-999,-999.0,-999.0,71,-99.99,,,-99.99,Homeseer,2013-01-17 20:54:00,
2013-01-17 15:59:00,40.3,34.0,29.85,North,-999,-999.0,-999.0,71,-99.99,,,-99.99,Homeseer,2013-01-17 20:59:00,
2013-01-17 16:04:00,40.3,34.5,29.85,North,-999,-999.0,-999.0,73,-99.99,,,-99.99,Homeseer,2013-01-17 21:04:00,
2013-01-17 16:09:00,40.0,33.7,29.85,North,-999,-999.0,-999.0,71,-99.99,,,-99.99,Homeseer,2013-01-17 21:09:00,
2013-01-17 16:15:00,40.0,34.2,29.85,North,-999,-999.0,-999.0,73,-99.99,,,-99.99,Homeseer,2013-01-17 21:15:00,
2013-01-17 16:20:00,40.0,34.5,29.85,North,-999,-999.0,-999.0,74,-99.99,,,-99.99,Homeseer,2013-01-17 21:20:00,
2013-01-17 16:25:00,39.8,34.0,29.85,North,-999,-999.0,-999.0,73,-99.99,,,-99.99,Homeseer,2013-01-17 21:25:00,
2013-01-17 16:30:00,39.5,34.5,29.86,North,-999,-999.0,-999.0,76,-99.99,,,-99.99,Homeseer,2013-01-17 21:30:00,
2013-01-17 16:36:00,39.4,34.4,29.85,North,-999,-999.0,-999.0,76,-99.99,,,-99.99,Homeseer,2013-01-17 21:36:00,
2013-01-17 16:41:00,39.2,34.4,29.86,North,-999,-999.0,-999.0,77,-99.99,,,-99.99,Homeseer,2013-01-17 21:41:00,
2013-01-17 16:46:00,38.9,34.1,29.87,North,-999,-999.0,-999.0,77,-99.99,,,-99.99,Homeseer,2013-01-17 21:46:00,
2013-01-17 16:51:00,38.6,34.3,29.87,North,-999,-999.0,-999.0,79,-99.99,,,-99.99,Homeseer,2013-01-17 21:51:00,
2013-01-17 16:56:00,38.2,33.7,29.88,North,-999,-999.0,-999.0,78,-99.99,,,-99.99,Homeseer,2013-01-17 21:56:00,
2013-01-17 17:01:00,37.8,33.7,29.87,North,-999,-999.0,-999.0,80,-99.99,,,-99.99,Homeseer,2013-01-17 22:01:00,
2013-01-17 17:07:00,37.6,32.9,29.88,North,-999,-999.0,-999.0,77,-99.99,,,-99.99,Homeseer,2013-01-17 22:07:00,
2013-01-17 17:12:00,37.6,32.6,29.89,North,-999,-999.0,-999.0,76,-99.99,,,-99.99,Homeseer,2013-01-17 22:12:00,
2013-01-17 17:17:00,38.0,31.8,29.89,North,-999,-999.0,-999.0,71,-99.99,,,-99.99,Homeseer,2013-01-17 22:17:00,
2013-01-17 17:22:00,38.1,31.9,29.90,North,-999,-999.0,-999.0,71,-99.99,,,-99.99,Homeseer,2013-01-17 22:22:00,
2013-01-17 17:27:00,38.1,31.4,29.91,North,-999,-999.0,-999.0,69,-99.99,,,-99.99,Homeseer,2013-01-17 22:27:00,
2013-01-17 17:32:00,38.3,31.9,29.91,North,-999,-999.0,-999.0,70,-99.99,,,-99.99,Homeseer,2013-01-17 22:32:00,
2013-01-17 17:37:00,38.1,31.9,29.91,North,-999,-999.0,-999.0,71,-99.99,,,-99.99,Homeseer,2013-01-17 22:37:00,
2013-01-17 17:42:00,38.0,31.3,29.91,North,-999,-999.0,-999.0,69,-99.99,,,-99.99,Homeseer,2013-01-17 22:42:00,
2013-01-17 17:47:00,38.1,31.4,29.91,North,-999,-999.0,-999.0,69,-99.99,,,-99.99,Homeseer,2013-01-17 22:47:00,
2013-01-17 17:52:00,37.6,31.2,29.91,North,-999,-999.0,-999.0,70,-99.99,,,-99.99,Homeseer,2013-01-17 22:52:00,
2013-01-17 17:57:00,37.6,31.4,29.91,North,-999,-999.0,-999.0,71,-99.99,,,-99.99,Homeseer,2013-01-17 22:57:00,
2013-01-17 18:02:00,37.6,31.2,29.91,North,-999,-999.0,-999.0,70,-99.99,,,-99.99,Homeseer,2013-01-17 23:02:00,
2013-01-17 18:07:00,37.5,30.8,29.91,North,-999,-999.0,-999.0,69,-99.99,,,-99.99,Homeseer,2013-01-17 23:07:00,
2013-01-17 18:12:00,37.4,31.2,29.91,North,-999,-999.0,-999.0,71,-99.99,,,-99.99,Homeseer,2013-01-17 23:12:00,
2013-01-17 18:17:00,37.1,30.5,29.92,North,-999,-999.0,-999.0,69,-99.99,,,-99.99,Homeseer,2013-01-17 23:17:00,
2013-01-17 18:22:00,37.3,30.4,29.93,North,-999,-999.0,-999.0,68,-99.99,,,-99.99,Homeseer,2013-01-17 23:22:00,
2013-01-17 18:27:00,37.2,30.3,29.93,North,-999,-999.0,-999.0,68,-99.99,,,-99.99,Homeseer,2013-01-17 23:27:00,
2013-01-17 18:32:00,37.0,30.1,29.94,North,-999,-999.0,-999.0,68,-99.99,,,-99.99,Homeseer,2013-01-17 23:32:00,
2013-01-17 18:37:00,36.8,30.7,29.96,North,-999,-999.0,-999.0,71,-99.99,,,-99.99,Homeseer,2013-01-17 23:37:00,
2013-01-17 18:42:00,36.7,30.6,29.97,North,-999,-999.0,-999.0,71,-99.99,,,-99.99,Homeseer,2013-01-17 23:42:00,
2013-01-17 18:47:00,36.5,30.1,29.97,North,-999,-999.0,-999.0,70,-99.99,,,-99.99,Homeseer,2013-01-17 23:47:00,
2013-01-17 18:52:00,36.3,29.7,29.97,North,-999,-999.0,-999.0,69,-99.99,,,-99.99,Homeseer,2013-01-17 23:52:00,
2013-01-17 18:57:00,36.3,29.2,29.95,North,-999,-999.0,-999.0,67,-99.99,,,-99.99,Homeseer,2013-01-17 23:57:00,
2013-01-17 19:02:00,36.2,29.6,29.93,North,-999,-999.0,-999.0,69,-99.99,,,-99.99,Homeseer,2013-01-18 00:02:00,
2013-01-17 19:07:00,36.2,29.1,29.93,North,-999,-999.0,-999.0,67,-99.99,,,-99.99,Homeseer,2013-01-18 00:07:00,
2013-01-17 19:12:00,36.0,28.6,29.93,North,-999,-999.0,-999.0,66,-99.99,,,-99.99,Homeseer,2013-01-18 00:12:00,
2013-01-17 19:17:00,35.7,29.6,29.96,North,-999,-999.0,-999.0,71,-99.99,,,-99.99,Homeseer,2013-01-18 00:17:00,
2013-01-17 19:22:00,35.8,29.5,29.97,North,-999,-999.0,-999.0,70,-99.99,,,-99.99,Homeseer,2013-01-18 00:22:00,
2013-01-17 19:27:00,35.6,29.3,29.97,North,-999,-999.0,-999.0,70,-99.99,,,-99.99,Homeseer,2013-01-18 00:27:00,
2013-01-17 19:32:00,35.6,29.0,29.98,North,-999,-999.0,-999.0,69,-99.99,,,-99.99,Homeseer,2013-01-18 00:32:00,
2013-01-17 19:37:00,35.5,28.7,29.97,North,-999,-999.0,-999.0,68,-99.99,,,-99.99,Homeseer,2013-01-18 00:37:00,
2013-01-17 19:42:00,35.4,28.3,29.97,North,-999,-999.0,-999.0,67,-99.99,,,-99.99,Homeseer,2013-01-18 00:42:00,
2013-01-17 19:47:00,35.2,28.6,29.98,North,-999,-999.0,-999.0,69,-99.99,,,-99.99,Homeseer,2013-01-18 00:47:00,
2013-01-17 19:52:00,35.2,27.4,29.97,North,-999,-999.0,-999.0,64,-99.99,,,-99.99,Homeseer,2013-01-18 00:52:00,
2013-01-17 19:57:00,35.0,28.2,29.97,North,-999,-999.0,-999.0,68,-99.99,,,-99.99,Homeseer,2013-01-18 00:57:00,
2013-01-17 20:02:00,34.7,27.7,29.97,North,-999,-999.0,-999.0,67,-99.99,,,-99.99,Homeseer,2013-01-18 01:02:00,
2013-01-17 20:07:00,34.8,27.0,29.97,North,-999,-999.0,-999.0,64,-99.99,,,-99.99,Homeseer,2013-01-18 01:07:00,
2013-01-17 20:12:00,34.6,27.8,29.97,North,-999,-999.0,-999.0,68,-99.99,,,-99.99,Homeseer,2013-01-18 01:12:00,
2013-01-17 20:17:00,34.7,27.1,29.97,North,-999,-999.0,-999.0,65,-99.99,,,-99.99,Homeseer,2013-01-18 01:17:00,
2013-01-17 20:22:00,34.7,27.4,29.97,North,-999,-999.0,-999.0,66,-99.99,,,-99.99,Homeseer,2013-01-18 01:22:00,
2013-01-17 20:27:00,34.4,27.6,29.97,North,-999,-999.0,-999.0,68,-99.99,,,-99.99,Homeseer,2013-01-18 01:27:00,
2013-01-17 20:32:00,34.5,27.5,29.97,North,-999,-999.0,-999.0,67,-99.99,,,-99.99,Homeseer,2013-01-18 01:32:00,
2013-01-17 20:37:00,34.2,26.9,29.97,North,-999,-999.0,-999.0,66,-99.99,,,-99.99,Homeseer,2013-01-18 01:37:00,
2013-01-17 20:42:00,34.2,25.9,29.95,North,-999,-999.0,-999.0,62,-99.99,,,-99.99,Homeseer,2013-01-18 01:42:00,
2013-01-17 20:47:00,34.4,27.1,29.96,North,-999,-999.0,-999.0,66,-99.99,,,-99.99,Homeseer,2013-01-18 01:47:00,
2013-01-17 20:52:00,34.1,26.8,29.95,North,-999,-999.0,-999.0,66,-99.99,,,-99.99,Homeseer,2013-01-18 01:52:00,
2013-01-17 20:57:00,33.9,26.1,29.95,North,-999,-999.0,-999.0,64,-99.99,,,-99.99,Homeseer,2013-01-18 01:57:00,
2013-01-17 21:02:00,34.0,27.0,29.94,North,-999,-999.0,-999.0,67,-99.99,,,-99.99,Homeseer,2013-01-18 02:02:00,
2013-01-17 21:07:00,34.0,26.5,29.95,North,-999,-999.0,-999.0,65,-99.99,,,-99.99,Homeseer,2013-01-18 02:07:00,
2013-01-17 21:12:00,33.7,26.2,29.95,North,-999,-999.0,-999.0,65,-99.99,,,-99.99,Homeseer,2013-01-18 02:12:00,
2013-01-17 21:17:00,33.4,25.7,29.96,North,-999,-999.0,-999.0,64,-99.99,,,-99.99,Homeseer,2013-01-18 02:17:00,
2013-01-17 21:22:00,33.2,24.1,29.95,North,-999,-999.0,-999.0,59,-99.99,,,-99.99,Homeseer,2013-01-18 02:22:00,
2013-01-17 21:27:00,33.8,26.3,29.97,North,-999,-999.0,-999.0,65,-99.99,,,-99.99,Homeseer,2013-01-18 02:27:00,
2013-01-17 21:32:00,33.7,25.7,29.96,North,-999,-999.0,-999.0,63,-99.99,,,-99.99,Homeseer,2013-01-18 02:32:00,
2013-01-17 21:37:00,33.6,26.1,29.96,North,-999,-999.0,-999.0,65,-99.99,,,-99.99,Homeseer,2013-01-18 02:37:00,
2013-01-17 21:42:00,33.8,26.0,29.95,North,-999,-999.0,-999.0,64,-99.99,,,-99.99,Homeseer,2013-01-18 02:42:00,
2013-01-17 21:47:00,33.4,25.4,29.95,North,-999,-999.0,-999.0,63,-99.99,,,-99.99,Homeseer,2013-01-18 02:47:00,
2013-01-17 21:52:00,33.4,25.4,29.94,North,-999,-999.0,-999.0,63,-99.99,,,-99.99,Homeseer,2013-01-18 02:52:00,
2013-01-17 21:57:00,33.5,25.2,29.92,North,-999,-999.0,-999.0,62,-99.99,,,-99.99,Homeseer,2013-01-18 02:57:00,
2013-01-17 22:02:00,33.4,25.1,29.92,North,-999,-999.0,-999.0,62,-99.99,,,-99.99,Homeseer,2013-01-18 03:02:00,
2013-01-17 22:07:00,33.4,25.7,29.93,North,-999,-999.0,-999.0,64,-99.99,,,-99.99,Homeseer,2013-01-18 03:07:00,
2013-01-17 22:12:00,33.1,25.4,29.93,North,-999,-999.0,-999.0,64,-99.99,,,-99.99,Homeseer,2013-01-18 03:12:00,
2013-01-17 22:17:00,33.1,25.1,29.93,North,-999,-999.0,-999.0,63,-99.99,,,-99.99,Homeseer,2013-01-18 03:17:00,
2013-01-17 22:22:00,33.0,25.5,29.92,North,-999,-999.0,-999.0,65,-99.99,,,-99.99,Homeseer,2013-01-18 03:22:00,
2013-01-17 22:27:00,32.9,24.9,29.94,North,-999,-999.0,-999.0,63,-99.99,,,-99.99,Homeseer,2013-01-18 03:27:00,
2013-01-17 22:32:00,33.0,25.0,29.95,North,-999,-999.0,-999.0,63,-99.99,,,-99.99,Homeseer,2013-01-18 03:32:00,
2013-01-17 22:37:00,32.7,24.5,29.96,North,-999,-999.0,-999.0,62,-99.99,,,-99.99,Homeseer,2013-01-18 03:37:00,
2013-01-17 22:42:00,32.9,25.4,29.96,North,-999,-999.0,-999.0,65,-99.99,,,-99.99,Homeseer,2013-01-18 03:42:00,
2013-01-17 22:47:00,32.9,24.7,29.95,North,-999,-999.0,-999.0,62,-99.99,,,-99.99,Homeseer,2013-01-18 03:47:00,
2013-01-17 22:52:00,32.3,23.8,29.95,North,-999,-999.0,-999.0,61,-99.99,,,-99.99,Homeseer,2013-01-18 03:52:00,
2013-01-17 22:57:00,32.7,23.9,29.96,North,-999,-999.0,-999.0,60,-99.99,,,-99.99,Homeseer,2013-01-18 03:57:00,
2013-01-17 23:02:00,32.3,24.4,29.95,North,-999,-999.0,-999.0,63,-99.99,,,-99.99,Homeseer,2013-01-18 04:02:00,
2013-01-17 23:07:00,32.2,22.0,29.92,North,-999,-999.0,-999.0,55,-99.99,,,-99.99,Homeseer,2013-01-18 04:07:00,
2013-01-17 23:12:00,32.0,21.8,29.93,North,-999,-999.0,-999.0,55,-99.99,,,-99.99,Homeseer,2013-01-18 04:12:00,
2013-01-17 23:17:00,32.0,21.5,29.91,North,-999,-999.0,-999.0,54,-99.99,,,-99.99,Homeseer,2013-01-18 04:17:00,
2013-01-17 23:22:00,31.9,22.0,29.91,North,-999,-999.0,-999.0,56,-99.99,,,-99.99,Homeseer,2013-01-18 04:22:00,
2013-01-17 23:27:00,31.3,20.6,29.89,North,-999,-999.0,-999.0,53,-99.99,,,-99.99,Homeseer,2013-01-18 04:27:00,
2013-01-17 23:32:00,31.6,21.5,29.89,North,-999,-999.0,-999.0,55,-99.99,,,-99.99,Homeseer,2013-01-18 04:32:00,
2013-01-17 23:37:00,31.6,20.5,29.89,North,-999,-999.0,-999.0,52,-99.99,,,-99.99,Homeseer,2013-01-18 04:37:00,
2013-01-17 23:42:00,31.4,20.7,29.88,North,-999,-999.0,-999.0,53,-99.99,,,-99.99,Homeseer,2013-01-18 04:42:00,
2013-01-17 23:47:00,31.1,20.1,29.89,North,-999,-999.0,-999.0,52,-99.99,,,-99.99,Homeseer,2013-01-18 04:47:00,
2013-01-17 23:52:00,31.1,20.1,29.90,North,-999,-999.0,-999.0,52,-99.99,,,-99.99,Homeseer,2013-01-18 04:52:00,
2013-01-17 23:57:00,31.1,20.1,29.90,North,-999,-999.0,-999.0,52,-99.99,,,-99.99,Homeseer,2013-01-18 04:57:00,